Time;durP1;ratioP1;P1;durP2;ratioP2;P2;SDS_P1;SDS_P2;PMS_P1;PMS_P2;Temp;Humidity;BMP_temperature;BMP_pressure;BME280_temperature;BME280_humidity;BME280_pressure;Samples;Min_cycle;Max_cycle;Signal;HPM_P1;HPM_P2
2022/11/25 00:00:25;;;;;;;19.90;4.30;;;7.30;99.90;;;;;;5032294;28;20150;-60
2022/11/25 00:02:51;;;;;;;20.17;3.38;;;7.30;99.90;;;;;;5031822;28;20037;-59
2022/11/25 00:05:16;;;;;;;16.38;3.58;;;7.30;99.90;;;;;;5032041;28;20037;-60
2022/11/25 00:07:42;;;;;;;16.92;3.78;;;7.40;99.90;;;;;;5031842;28;20512;-60
2022/11/25 00:10:08;;;;;;;19.15;4.13;;;7.30;99.90;;;;;;5014236;28;20037;-60
2022/11/25 00:12:34;;;;;;;19.42;3.58;;;7.10;99.90;;;;;;5031658;28;20061;-59
2022/11/25 00:15:00;;;;;;;13.50;3.10;;;7.30;99.90;;;;;;5032183;28;20052;-60
2022/11/25 00:17:25;;;;;;;15.88;3.40;;;7.20;99.90;;;;;;5032087;28;20045;-60
2022/11/25 00:19:51;;;;;;;13.80;3.55;;;7.40;99.90;;;;;;5014357;28;20049;-59
2022/11/25 00:22:16;;;;;;;16.58;3.53;;;7.30;99.90;;;;;;5032238;28;20045;-58
2022/11/25 00:24:42;;;;;;;13.45;3.40;;;7.00;99.90;;;;;;5031828;28;20073;-58
2022/11/25 00:27:08;;;;;;;14.60;3.22;;;7.30;99.90;;;;;;5014279;28;20041;-58
2022/11/25 00:29:33;;;;;;;20.75;3.92;;;7.10;99.90;;;;;;5032110;28;20414;-58
2022/11/25 00:31:59;;;;;;;17.05;3.40;;;7.30;99.90;;;;;;5031963;28;20482;-58
2022/11/25 00:34:25;;;;;;;15.73;3.42;;;7.10;99.90;;;;;;5031848;28;20038;-58
2022/11/25 00:36:52;;;;;;;18.38;4.03;;;7.40;99.90;;;;;;5031923;28;20091;-62
2022/11/25 00:39:18;;;;;;;17.75;3.75;;;7.20;99.90;;;;;;5031841;28;20042;-59
2022/11/25 00:44:36;;;;;;;17.75;4.03;;;7.20;99.90;;;;;;5031720;28;20060;-58
2022/11/25 00:47:08;;;;;;;14.65;3.80;;;7.40;99.90;;;;;;5031763;28;20103;-59
2022/11/25 00:49:35;;;;;;;18.05;4.15;;;7.20;99.90;;;;;;5031996;28;20045;-59
2022/11/25 00:52:01;;;;;;;16.52;4.32;;;7.20;99.90;;;;;;5014058;28;20501;-59
2022/11/25 00:54:27;;;;;;;17.58;4.07;;;7.40;99.90;;;;;;5014041;28;20400;-60
2022/11/25 00:56:53;;;;;;;16.15;3.67;;;7.20;99.90;;;;;;5031772;28;20033;-58
2022/11/25 00:59:19;;;;;;;17.85;3.67;;;7.30;99.90;;;;;;5031642;28;20041;-57
2022/11/25 01:01:45;;;;;;;14.30;4.22;;;7.30;99.90;;;;;;5031663;28;20585;-60
2022/11/25 01:04:10;;;;;;;16.88;3.92;;;7.40;99.90;;;;;;5013943;28;20079;-60
2022/11/25 01:06:36;;;;;;;17.38;3.90;;;7.20;99.90;;;;;;5014156;28;20025;-57
2022/11/25 01:09:04;;;;;;;16.13;4.22;;;7.40;99.90;;;;;;5031632;28;20080;-59
2022/11/25 01:11:30;;;;;;;18.40;4.75;;;7.40;99.90;;;;;;5031350;28;20045;-60
2022/11/25 01:13:57;;;;;;;16.20;3.55;;;7.50;99.90;;;;;;5032664;28;20401;-58
2022/11/25 01:16:23;;;;;;;17.25;3.78;;;7.40;99.90;;;;;;5034977;28;20452;-59
2022/11/25 01:18:49;;;;;;;16.23;4.10;;;7.50;99.90;;;;;;5035085;28;20125;-59
2022/11/25 01:21:29;;;;;;;17.33;4.47;;;7.50;99.90;;;;;;5035206;28;20247;-58
2022/11/25 01:23:55;;;;;;;17.85;3.53;;;7.60;99.90;;;;;;5035006;28;20134;-57
2022/11/25 01:26:23;;;;;;;12.85;3.70;;;7.50;99.90;;;;;;5034953;28;20439;-59
2022/11/25 01:28:53;;;;;;;16.42;3.70;;;7.40;99.90;;;;;;5017093;28;20052;-59
2022/11/25 01:31:20;;;;;;;15.07;4.28;;;7.30;99.90;;;;;;5034861;28;20034;-60
2022/11/25 01:33:50;;;;;;;18.95;4.28;;;7.50;99.90;;;;;;5034724;28;20116;-59
2022/11/25 01:36:17;;;;;;;15.18;4.35;;;7.30;99.90;;;;;;5034857;28;20041;-59
2022/11/25 01:38:44;;;;;;;25.40;4.78;;;7.30;99.90;;;;;;5034767;28;20397;-59
2022/11/25 01:41:12;;;;;;;14.10;3.25;;;7.40;99.90;;;;;;5034580;28;20430;-59
2022/11/25 01:43:39;;;;;;;16.58;3.78;;;7.20;99.90;;;;;;5034710;28;20045;-58
2022/11/25 01:46:24;;;;;;;19.83;3.88;;;7.40;99.90;;;;;;5034739;28;20037;-59
2022/11/25 01:48:57;;;;;;;12.55;3.65;;;7.20;99.90;;;;;;5034561;28;20053;-59
2022/11/25 01:51:41;;;;;;;17.55;4.53;;;7.20;99.90;;;;;;5034535;28;20067;-59
2022/11/25 01:54:10;;;;;;;13.63;3.88;;;7.40;99.90;;;;;;5034414;28;20046;-59
2022/11/25 01:56:44;;;;;;;18.58;3.70;;;7.40;99.90;;;;;;5034504;28;20041;-60
2022/11/25 01:59:11;;;;;;;21.52;4.15;;;7.40;99.90;;;;;;5034851;28;20055;-59
2022/11/25 02:01:37;;;;;;;19.55;4.47;;;7.40;99.90;;;;;;5022396;28;20053;-59
2022/11/25 02:04:03;;;;;;;14.52;4.13;;;7.40;99.90;;;;;;5021778;28;20049;-59
2022/11/25 02:06:34;;;;;;;16.25;3.75;;;7.50;99.90;;;;;;5036567;28;20081;-59
2022/11/25 02:09:04;;;;;;;16.65;3.53;;;7.50;99.90;;;;;;5036869;28;20037;-60
2022/11/25 02:11:32;;;;;;;18.83;3.80;;;7.50;99.90;;;;;;5035682;28;20100;-59
2022/11/25 02:13:59;;;;;;;15.65;3.60;;;7.20;99.90;;;;;;5016171;28;20041;-60
2022/11/25 02:16:25;;;;;;;22.10;4.20;;;7.40;99.90;;;;;;5033838;28;20041;-60
2022/11/25 02:18:51;;;;;;;14.25;4.80;;;7.10;99.90;;;;;;5033764;28;20524;-59
2022/11/25 02:21:24;;;;;;;14.52;3.83;;;7.30;99.90;;;;;;5033694;28;20037;-60
2022/11/25 02:23:59;;;;;;;18.95;4.05;;;7.40;99.90;;;;;;5033960;28;20401;-59
2022/11/25 02:26:25;;;;;;;19.50;4.85;;;7.50;99.90;;;;;;5052562;28;20045;-47
2022/11/25 02:28:51;;;;;;;14.23;3.75;;;7.50;99.90;;;;;;5035417;28;20481;-46
2022/11/25 02:31:21;;;;;;;23.65;4.15;;;7.50;99.90;;;;;;5053223;28;20040;-46
2022/11/25 02:33:47;;;;;;;20.02;4.43;;;7.50;99.90;;;;;;5035020;28;20045;-48
2022/11/25 02:36:17;;;;;;;15.25;4.18;;;7.40;99.90;;;;;;5053281;28;20037;-48
2022/11/25 02:38:53;;;;;;;13.20;4.80;;;7.60;99.90;;;;;;5053506;28;20363;-47
2022/11/25 02:41:24;;;;;;;13.90;4.45;;;7.20;99.90;;;;;;5035559;28;20072;-46
2022/11/25 02:43:50;;;;;;;15.43;4.53;;;7.10;99.90;;;;;;5053261;28;20044;-47
2022/11/25 02:46:18;;;;;;;13.07;4.57;;;7.30;99.90;;;;;;5053494;28;20066;-45
2022/11/25 02:48:44;;;;;;;17.45;4.70;;;7.50;99.90;;;;;;5053230;28;20507;-46
2022/11/25 02:51:13;;;;;;;17.05;4.25;;;7.30;99.90;;;;;;5053382;28;20033;-47
2022/11/25 02:53:39;;;;;;;15.07;4.20;;;7.10;99.90;;;;;;5053237;28;20041;-46
2022/11/25 02:56:05;;;;;;;16.88;4.57;;;7.30;99.90;;;;;;5053041;28;20045;-50
2022/11/25 02:58:31;;;;;;;19.85;5.05;;;7.10;99.90;;;;;;5053322;28;20053;-45
2022/11/25 03:00:57;;;;;;;24.75;5.55;;;7.40;99.90;;;;;;5051873;28;20045;-47
2022/11/25 03:03:23;;;;;;;17.15;5.00;;;7.60;99.90;;;;;;5052968;28;20436;-48
2022/11/25 03:05:48;;;;;;;18.65;5.22;;;7.20;99.90;;;;;;5052934;28;20090;-47
2022/11/25 03:08:14;;;;;;;17.95;4.70;;;7.20;99.90;;;;;;5035231;28;20044;-45
2022/11/25 03:10:40;;;;;;;21.60;5.95;;;7.20;99.90;;;;;;5052966;28;20055;-45
2022/11/25 03:13:07;;;;;;;20.92;5.85;;;7.20;99.90;;;;;;5034840;28;20555;-48
2022/11/25 03:15:33;;;;;;;20.33;5.72;;;7.20;99.90;;;;;;5035132;28;20040;-45
2022/11/25 03:17:59;;;;;;;18.85;5.05;;;7.60;99.90;;;;;;5052657;28;20055;-47
2022/11/25 03:20:24;;;;;;;19.63;5.47;;;7.40;99.90;;;;;;5052801;28;20120;-46
2022/11/25 03:22:50;;;;;;;17.75;6.05;;;7.60;99.90;;;;;;5052724;28;20047;-49
2022/11/25 03:25:16;;;;;;;18.70;5.03;;;7.20;99.90;;;;;;5052451;28;20045;-45
2022/11/25 03:27:42;;;;;;;21.98;6.40;;;7.70;99.90;;;;;;5052466;28;20078;-45
2022/11/25 03:30:12;;;;;;;26.33;6.50;;;7.20;99.90;;;;;;5052704;28;20045;-48
2022/11/25 03:32:37;;;;;;;20.17;5.82;;;7.20;99.90;;;;;;5052677;28;20090;-45
2022/11/25 03:35:04;;;;;;;20.95;7.10;;;7.50;99.90;;;;;;5052595;28;20108;-46
2022/11/25 03:37:30;;;;;;;21.00;6.25;;;7.80;99.90;;;;;;5034282;28;20389;-46
2022/11/25 03:39:55;;;;;;;18.67;7.07;;;7.90;99.90;;;;;;5052346;28;20047;-47
2022/11/25 03:42:21;;;;;;;19.85;6.93;;;7.30;99.90;;;;;;5052285;28;20485;-47
2022/11/25 03:44:46;;;;;;;22.77;7.53;;;7.30;99.90;;;;;;5052176;28;20037;-48
2022/11/25 03:47:12;;;;;;;22.67;7.22;;;7.90;99.90;;;;;;5052378;28;20037;-45
2022/11/25 03:49:38;;;;;;;26.25;7.15;;;7.40;99.90;;;;;;5045785;28;20091;-48
2022/11/25 03:52:03;;;;;;;17.55;5.60;;;8.00;99.90;;;;;;5034323;28;20041;-47
2022/11/25 03:54:29;;;;;;;16.90;5.85;;;7.40;99.90;;;;;;5051981;28;20095;-47
2022/11/25 03:56:55;;;;;;;15.85;5.80;;;7.40;99.90;;;;;;5046781;28;20053;-46
2022/11/25 03:59:21;;;;;;;17.30;6.07;;;7.60;99.90;;;;;;5014708;28;20596;-46
2022/11/25 04:01:46;;;;;;;21.02;6.18;;;7.90;99.90;;;;;;5032303;28;20034;-48
2022/11/25 04:04:12;;;;;;;19.27;5.82;;;8.10;99.90;;;;;;5014321;28;20045;-47
2022/11/25 04:06:41;;;;;;;17.33;5.82;;;8.10;99.90;;;;;;5047382;28;20036;-46
2022/11/25 04:09:08;;;;;;;17.83;6.57;;;7.90;99.90;;;;;;5051909;28;20052;-46
2022/11/25 04:14:18;;;;;;;19.80;7.10;;;8.10;99.90;;;;;;5036960;28;20476;-47
2022/11/25 04:16:44;;;;;;;23.08;6.97;;;7.60;99.90;;;;;;5051937;28;20129;-48
2022/11/25 04:19:09;;;;;;;19.90;7.57;;;7.50;99.90;;;;;;5051784;28;20068;-46
2022/11/25 04:21:35;;;;;;;22.73;8.20;;;7.40;99.90;;;;;;5051918;28;20037;-46
2022/11/25 04:24:02;;;;;;;25.95;8.05;;;7.80;99.90;;;;;;5034163;28;20496;-45
2022/11/25 04:26:27;;;;;;;21.50;8.50;;;7.50;99.90;;;;;;4997941;28;20033;-48
2022/11/25 04:28:53;;;;;;;21.23;8.02;;;8.10;99.90;;;;;;5031915;28;20120;-46
2022/11/25 04:31:19;;;;;;;23.48;7.93;;;7.40;99.90;;;;;;5031779;28;20042;-47
2022/11/25 04:33:45;;;;;;;19.83;8.25;;;7.40;99.90;;;;;;5031950;28;20049;-48
2022/11/25 04:36:10;;;;;;;20.83;8.20;;;7.40;99.90;;;;;;5014010;28;20050;-50
2022/11/25 04:38:36;;;;;;;19.95;7.80;;;7.40;99.90;;;;;;5032164;28;20037;-49
2022/11/25 04:41:02;;;;;;;23.63;9.90;;;8.00;99.90;;;;;;5031732;28;20037;-50
2022/11/25 04:43:27;;;;;;;20.67;8.93;;;7.40;99.90;;;;;;5031966;28;20489;-48
2022/11/25 04:45:53;;;;;;;22.77;8.85;;;7.30;99.90;;;;;;5014001;28;20117;-48
2022/11/25 04:48:19;;;;;;;27.95;9.48;;;8.00;99.90;;;;;;5032141;28;20410;-48
2022/11/25 04:50:45;;;;;;;22.23;10.05;;;7.40;99.90;;;;;;5035451;28;20536;-50
2022/11/25 04:53:10;;;;;;;30.17;10.00;;;7.40;99.90;;;;;;5035499;28;20041;-47
2022/11/25 04:55:36;;;;;;;24.83;9.65;;;7.90;99.90;;;;;;5035544;28;20452;-50
2022/11/25 04:58:03;;;;;;;19.73;8.45;;;8.10;99.90;;;;;;5052061;28;20041;-48
2022/11/25 05:00:28;;;;;;;24.00;9.80;;;7.40;99.90;;;;;;5055388;28;20132;-48
2022/11/25 05:02:54;;;;;;;23.45;10.18;;;7.60;99.90;;;;;;5055325;28;20108;-46
2022/11/25 05:05:20;;;;;;;27.27;10.05;;;7.50;99.90;;;;;;5055114;28;20056;-45
2022/11/25 05:07:46;;;;;;;25.40;9.93;;;7.60;99.90;;;;;;5037159;28;20039;-46
2022/11/25 05:10:12;;;;;;;26.38;10.13;;;7.40;99.90;;;;;;5055228;28;20040;-50
2022/11/25 05:12:38;;;;;;;25.35;10.15;;;7.80;99.90;;;;;;5037094;28;20099;-51
2022/11/25 05:15:05;;;;;;;21.50;9.48;;;7.70;99.90;;;;;;5020560;28;20057;-49
2022/11/25 05:17:31;;;;;;;25.83;10.07;;;7.40;99.90;;;;;;5055000;28;20041;-46
2022/11/25 05:19:57;;;;;;;25.70;9.88;;;7.60;99.90;;;;;;5054781;28;20052;-45
2022/11/25 05:22:26;;;;;;;31.23;9.90;;;7.40;99.90;;;;;;5020770;28;20040;-45
2022/11/25 05:24:53;;;;;;;26.30;9.32;;;7.40;99.90;;;;;;5054744;28;20036;-46
2022/11/25 05:27:19;;;;;;;20.75;10.00;;;8.10;99.90;;;;;;5054919;28;20120;-45
2022/11/25 05:29:45;;;;;;;26.67;10.35;;;7.60;99.90;;;;;;5054724;28;20034;-45
2022/11/25 05:32:11;;;;;;;20.63;9.55;;;8.10;99.90;;;;;;5054802;28;20063;-45
2022/11/25 05:34:37;;;;;;;23.73;9.52;;;8.00;99.90;;;;;;5054633;28;20037;-48
2022/11/25 05:37:03;;;;;;;23.02;10.32;;;7.60;99.90;;;;;;5054596;28;20485;-47
2022/11/25 05:39:29;;;;;;;23.90;9.80;;;7.70;99.90;;;;;;5036772;28;20075;-45
2022/11/25 05:41:55;;;;;;;20.23;9.20;;;7.40;99.90;;;;;;5054564;28;20083;-49
2022/11/25 05:44:21;;;;;;;23.00;9.32;;;7.70;99.90;;;;;;5054378;28;20137;-47
2022/11/25 05:46:47;;;;;;;23.50;9.75;;;7.50;99.90;;;;;;5054313;28;20064;-45
2022/11/25 05:49:14;;;;;;;28.02;9.93;;;7.50;99.90;;;;;;5054406;28;20041;-46
2022/11/25 05:51:39;;;;;;;22.75;9.55;;;7.50;99.90;;;;;;5054327;28;20045;-47
2022/11/25 05:54:05;;;;;;;23.42;9.57;;;7.80;99.90;;;;;;5054518;28;20426;-45
2022/11/25 05:56:31;;;;;;;28.00;9.65;;;7.70;99.90;;;;;;5049927;28;20033;-50
2022/11/25 05:58:59;;;;;;;28.20;10.07;;;7.40;99.90;;;;;;5033998;28;20382;-44
2022/11/25 06:01:25;;;;;;;28.33;9.98;;;7.90;99.90;;;;;;5016231;28;20042;-45
2022/11/25 06:03:51;;;;;;;21.70;9.65;;;8.10;99.90;;;;;;5016473;28;20067;-46
2022/11/25 06:06:17;;;;;;;25.00;9.98;;;7.70;99.90;;;;;;5034371;28;20382;-46
2022/11/25 06:08:43;;;;;;;27.13;9.23;;;7.70;99.90;;;;;;5034206;28;20512;-45
2022/11/25 06:11:14;;;;;;;26.88;9.30;;;7.50;99.90;;;;;;5034112;28;20073;-49
2022/11/25 06:13:42;;;;;;;24.67;9.45;;;8.10;99.90;;;;;;5034063;28;20053;-44
2022/11/25 06:16:08;;;;;;;26.75;8.85;;;7.40;99.90;;;;;;5033890;28;20072;-44
2022/11/25 06:18:36;;;;;;;21.33;8.15;;;8.20;99.90;;;;;;5033945;28;20052;-47
2022/11/25 06:21:02;;;;;;;21.65;8.68;;;8.00;99.90;;;;;;5034083;28;20124;-46
2022/11/25 06:23:27;;;;;;;26.77;9.05;;;8.20;99.90;;;;;;5034145;28;20117;-45
2022/11/25 06:25:53;;;;;;;25.70;9.60;;;7.50;99.90;;;;;;5033617;28;20087;-46
2022/11/25 06:28:19;;;;;;;21.20;9.38;;;7.50;99.90;;;;;;5034012;28;20100;-47
2022/11/25 06:30:44;;;;;;;23.30;9.13;;;7.90;99.90;;;;;;4999650;28;20044;-45
2022/11/25 06:33:10;;;;;;;26.15;9.23;;;8.20;99.90;;;;;;5033616;28;20043;-58
2022/11/25 06:35:36;;;;;;;29.13;10.23;;;7.50;99.90;;;;;;5033610;28;20504;-59
2022/11/25 06:38:02;;;;;;;22.40;9.35;;;7.60;99.90;;;;;;5033656;28;20076;-58
2022/11/25 06:40:27;;;;;;;26.48;9.38;;;7.90;99.90;;;;;;5033775;28;20045;-59
2022/11/25 06:42:53;;;;;;;25.40;9.15;;;8.20;99.90;;;;;;5033494;28;20397;-58
2022/11/25 06:45:19;;;;;;;31.42;9.93;;;7.50;99.90;;;;;;5033399;28;20120;-59
2022/11/25 06:47:44;;;;;;;22.73;9.60;;;8.20;99.90;;;;;;5033263;28;20030;-59
2022/11/25 06:50:10;;;;;;;26.63;10.10;;;8.00;99.90;;;;;;5033550;28;20490;-59
2022/11/25 06:52:36;;;;;;;20.70;9.07;;;8.20;99.90;;;;;;5015906;28;20088;-61
2022/11/25 06:55:02;;;;;;;25.98;9.27;;;7.70;99.90;;;;;;5033839;28;20501;-61
2022/11/25 06:57:27;;;;;;;19.08;8.30;;;7.90;99.90;;;;;;5044890;28;20443;-60
2022/11/25 06:59:53;;;;;;;27.83;9.25;;;8.30;99.90;;;;;;5053191;28;20131;-59
2022/11/25 07:02:19;;;;;;;20.27;7.85;;;8.30;99.90;;;;;;5052907;28;20091;-60
2022/11/25 07:04:44;;;;;;;25.38;8.68;;;7.90;99.90;;;;;;5053066;28;20090;-58
2022/11/25 07:07:11;;;;;;;20.63;7.43;;;8.30;99.90;;;;;;5053077;28;20045;-60
2022/11/25 07:09:37;;;;;;;19.77;8.10;;;7.80;99.90;;;;;;5052856;28;20075;-59
2022/11/25 07:12:04;;;;;;;21.20;8.43;;;8.30;99.90;;;;;;5033887;28;20059;-59
2022/11/25 07:14:30;;;;;;;20.15;8.10;;;8.30;99.90;;;;;;5052661;28;20060;-59
2022/11/25 07:16:56;;;;;;;22.23;7.10;;;8.00;99.90;;;;;;5052975;28;20037;-60
2022/11/25 07:19:21;;;;;;;24.10;7.75;;;8.30;99.90;;;;;;5052679;28;20396;-58
2022/11/25 07:21:47;;;;;;;17.08;7.10;;;8.30;99.90;;;;;;5052826;28;20524;-59
2022/11/25 07:24:14;;;;;;;19.83;7.30;;;8.30;99.90;;;;;;5052415;28;20049;-59
2022/11/25 07:26:42;;;;;;;19.90;7.07;;;8.10;99.90;;;;;;5052509;28;20029;-60
2022/11/25 07:29:10;;;;;;;19.50;7.03;;;8.20;99.90;;;;;;5052461;28;20052;-58
2022/11/25 07:31:39;;;;;;;17.88;7.72;;;8.20;99.90;;;;;;5052398;28;20465;-61
2022/11/25 07:34:14;;;;;;;19.92;7.97;;;8.30;99.90;;;;;;5052481;28;20083;-58
2022/11/25 07:36:40;;;;;;;19.48;7.68;;;7.60;99.90;;;;;;5052427;28;20047;-59
2022/11/25 07:39:10;;;;;;;15.30;8.10;;;8.30;99.90;;;;;;5052431;28;20537;-58
2022/11/25 07:41:36;;;;;;;22.17;8.38;;;7.60;99.90;;;;;;5051990;28;20033;-60
2022/11/25 07:44:04;;;;;;;17.48;7.80;;;8.30;99.90;;;;;;5052231;28;20078;-59
2022/11/25 07:46:32;;;;;;;18.17;7.90;;;8.20;99.90;;;;;;5052322;28;20620;-59
2022/11/25 07:49:01;;;;;;;18.15;7.93;;;7.70;99.90;;;;;;5052120;28;20566;-60
2022/11/25 07:51:40;;;;;;;21.13;8.93;;;8.30;99.90;;;;;;5052251;28;20041;-58
2022/11/25 07:54:08;;;;;;;18.80;7.82;;;8.20;99.90;;;;;;5052013;28;20083;-58
2022/11/25 07:56:36;;;;;;;22.73;7.38;;;8.20;99.90;;;;;;5029799;28;20053;-59
2022/11/25 07:59:02;;;;;;;22.70;7.80;;;8.10;99.90;;;;;;5032309;28;20043;-59
2022/11/25 08:01:28;;;;;;;13.73;5.93;;;7.70;99.90;;;;;;5032229;28;20513;-59
2022/11/25 08:03:54;;;;;;;17.02;6.45;;;7.90;99.90;;;;;;5032307;28;20112;-60
2022/11/25 08:06:22;;;;;;;14.25;7.03;;;8.10;99.90;;;;;;5031946;28;20038;-60
2022/11/25 08:08:48;;;;;;;17.15;6.85;;;8.10;99.90;;;;;;5032133;28;20915;-59
2022/11/25 08:11:17;;;;;;;16.77;6.18;;;7.80;99.90;;;;;;5032137;28;20402;-60
2022/11/25 08:13:43;;;;;;;13.98;6.07;;;8.00;99.90;;;;;;5032519;28;20049;-57
2022/11/25 08:16:11;;;;;;;16.63;6.10;;;7.80;99.90;;;;;;5032379;28;20429;-60
2022/11/25 08:18:38;;;;;;;15.02;6.03;;;8.00;99.90;;;;;;5032303;28;20073;-61
2022/11/25 08:21:06;;;;;;;17.80;5.80;;;7.50;99.90;;;;;;5014726;28;20045;-60
2022/11/25 08:23:33;;;;;;;18.70;6.55;;;7.50;99.90;;;;;;5034346;28;20152;-59
2022/11/25 08:26:04;;;;;;;13.38;5.00;;;7.50;99.90;;;;;;5036268;28;20449;-60
2022/11/25 08:28:30;;;;;;;14.25;5.45;;;8.00;99.90;;;;;;5036144;28;20401;-59
2022/11/25 08:31:08;;;;;;;13.63;5.70;;;7.50;99.90;;;;;;5018605;28;20034;-59
2022/11/25 08:33:34;;;;;;;14.73;5.35;;;7.90;99.90;;;;;;5035901;28;20044;-60
2022/11/25 08:36:00;;;;;;;15.00;6.40;;;7.90;99.90;;;;;;5035975;28;20045;-60
2022/11/25 08:38:26;;;;;;;12.05;5.20;;;7.80;99.90;;;;;;5035730;28;20095;-59
2022/11/25 08:40:53;;;;;;;19.42;5.40;;;8.00;99.90;;;;;;5035889;28;20152;-60
2022/11/25 08:43:20;;;;;;;14.98;5.57;;;8.00;99.90;;;;;;5035894;28;20041;-60
2022/11/25 08:45:47;;;;;;;13.60;5.50;;;8.00;99.90;;;;;;5017758;28;20085;-59
2022/11/25 08:48:14;;;;;;;15.57;5.72;;;7.50;99.90;;;;;;5035562;28;20042;-59
2022/11/25 08:50:44;;;;;;;15.55;5.63;;;8.10;99.90;;;;;;5017835;28;20041;-59
2022/11/25 08:53:10;;;;;;;12.57;5.10;;;7.60;99.90;;;;;;5035632;28;20041;-59
2022/11/25 08:55:37;;;;;;;13.50;5.13;;;8.10;99.90;;;;;;5035463;28;20137;-60
2022/11/25 08:58:04;;;;;;;14.80;5.50;;;7.60;99.90;;;;;;5052303;28;20409;-60
2022/11/25 09:00:29;;;;;;;15.50;5.38;;;7.70;99.90;;;;;;5055303;28;20119;-59
2022/11/25 09:02:55;;;;;;;14.07;5.07;;;8.20;99.90;;;;;;5055207;28;20120;-57
2022/11/25 09:05:21;;;;;;;13.90;5.78;;;8.10;99.90;;;;;;5055253;28;20044;-60
2022/11/25 09:07:46;;;;;;;15.35;5.60;;;8.30;99.90;;;;;;5055280;28;20045;-60
2022/11/25 09:10:15;;;;;;;13.52;5.35;;;7.80;99.90;;;;;;5055104;28;20086;-59
2022/11/25 09:12:41;;;;;;;17.20;4.97;;;7.90;99.90;;;;;;5033549;28;20049;-58
2022/11/25 09:15:07;;;;;;;13.95;5.28;;;7.80;99.90;;;;;;5035174;28;20049;-60
2022/11/25 09:17:36;;;;;;;14.35;5.38;;;8.10;99.90;;;;;;5035011;28;20056;-61
2022/11/25 09:20:04;;;;;;;11.05;4.60;;;8.40;99.90;;;;;;5035239;28;20045;-60
2022/11/25 09:22:31;;;;;;;13.57;5.22;;;8.20;99.90;;;;;;5035179;28;20107;-60
2022/11/25 09:24:57;;;;;;;12.00;5.45;;;8.10;99.90;;;;;;5034895;28;20048;-58
2022/11/25 09:27:22;;;;;;;15.20;5.63;;;8.10;99.90;;;;;;5035092;28;20402;-59
2022/11/25 09:29:48;;;;;;;12.93;5.47;;;8.40;99.90;;;;;;5034764;28;20053;-60
2022/11/25 09:32:14;;;;;;;15.05;5.28;;;8.50;99.90;;;;;;5034856;28;20056;-60
2022/11/25 09:34:39;;;;;;;12.25;5.05;;;8.50;99.90;;;;;;5033769;28;20047;-60
2022/11/25 09:37:05;;;;;;;15.75;5.32;;;8.10;99.90;;;;;;5034991;28;20107;-59
2022/11/25 09:39:33;;;;;;;11.48;4.60;;;8.50;99.90;;;;;;5034683;28;20378;-59
2022/11/25 09:48:30;;;;;;;13.40;5.05;;;8.70;99.90;;;;;;5034556;28;20048;-59
2022/11/25 09:51:05;;;;;;;12.63;5.22;;;8.70;99.90;;;;;;5034541;28;20076;-59
2022/11/25 09:53:55;;;;;;;12.82;4.88;;;8.80;99.90;;;;;;5034750;28;20104;-59
2022/11/25 09:56:39;;;;;;;13.48;4.90;;;8.90;99.90;;;;;;5031519;28;20046;-59
2022/11/25 09:59:16;;;;;;;14.90;4.93;;;8.50;99.90;;;;;;5015012;28;20046;-58
2022/11/25 10:01:54;;;;;;;13.07;4.30;;;8.90;99.90;;;;;;5013738;28;20402;-61
2022/11/25 10:04:30;;;;;;;15.18;4.50;;;8.70;99.90;;;;;;5013363;28;20054;-60
2022/11/25 10:07:00;;;;;;;12.70;3.97;;;8.90;99.90;;;;;;5014492;28;20486;-58
2022/11/25 10:09:29;;;;;;;14.23;4.75;;;9.00;99.90;;;;;;5014388;28;20426;-60
2022/11/25 10:12:02;;;;;;;12.63;4.40;;;8.80;99.90;;;;;;5018562;28;20046;-59
2022/11/25 10:14:46;;;;;;;12.02;3.95;;;8.80;99.90;;;;;;4999966;28;20049;-61
2022/11/25 10:17:30;;;;;;;10.98;3.95;;;8.80;99.90;;;;;;5034164;28;20124;-60
2022/11/25 10:20:05;;;;;;;12.30;3.92;;;8.90;99.90;;;;;;5034054;28;20556;-60
2022/11/25 10:22:34;;;;;;;13.90;4.72;;;9.20;99.90;;;;;;5033950;28;20041;-60
2022/11/25 10:25:11;;;;;;;11.43;4.30;;;9.00;99.90;;;;;;5034024;28;20061;-61
2022/11/25 10:27:42;;;;;;;11.75;3.60;;;9.10;99.90;;;;;;5033779;28;20038;-59
2022/11/25 10:30:16;;;;;;;9.23;3.40;;;9.00;99.90;;;;;;5033608;28;20045;-60
2022/11/25 10:32:51;;;;;;;14.35;4.15;;;9.10;99.90;;;;;;5033530;28;20048;-60
2022/11/25 10:35:32;;;;;;;16.38;4.45;;;9.30;99.90;;;;;;5033848;28;20042;-60
2022/11/25 10:38:01;;;;;;;14.98;4.20;;;9.20;99.90;;;;;;5033812;28;20041;-60
2022/11/25 10:40:27;;;;;;;9.65;3.60;;;9.30;99.90;;;;;;5033464;28;20556;-58
2022/11/25 10:42:53;;;;;;;11.93;3.88;;;9.30;99.90;;;;;;5033571;28;20124;-59
2022/11/25 10:45:30;;;;;;;16.15;5.00;;;9.50;99.90;;;;;;5033149;28;20379;-59
2022/11/25 10:47:56;;;;;;;12.60;4.55;;;9.70;99.90;;;;;;5033420;28;20069;-58
2022/11/25 10:50:50;;;;;;;14.43;3.72;;;9.60;99.90;;;;;;5015732;28;20119;-58
2022/11/25 10:53:21;;;;;;;14.63;3.92;;;9.40;99.90;;;;;;5033265;28;20046;-58
2022/11/25 10:56:09;;;;;;;12.07;3.75;;;9.50;99.90;;;;;;5033279;28;20474;-59
2022/11/25 10:58:37;;;;;;;16.33;4.15;;;9.70;99.90;;;;;;5033047;28;20042;-60
2022/11/25 11:01:16;;;;;;;14.85;4.82;;;9.70;99.90;;;;;;5033098;28;20464;-60
2022/11/25 11:03:44;;;;;;;12.13;3.72;;;9.80;99.90;;;;;;5033338;28;20041;-60
2022/11/25 11:06:29;;;;;;;13.07;3.92;;;9.70;99.90;;;;;;5015358;28;20045;-60
2022/11/25 11:08:54;;;;;;;12.73;3.97;;;9.70;99.90;;;;;;5033146;28;20049;-60
2022/11/25 11:11:22;;;;;;;13.15;3.75;;;9.80;99.90;;;;;;5032783;28;20037;-60
2022/11/25 11:13:56;;;;;;;13.82;4.00;;;9.90;99.90;;;;;;5032428;28;20099;-59
2022/11/25 11:16:33;;;;;;;13.73;3.80;;;9.90;99.90;;;;;;5032735;28;20477;-59
2022/11/25 11:18:59;;;;;;;12.88;4.47;;;10.00;99.90;;;;;;5033014;28;20072;-60
2022/11/25 11:21:36;;;;;;;11.13;3.70;;;9.80;99.90;;;;;;5033436;28;20445;-60
2022/11/25 11:24:21;;;;;;;15.95;4.05;;;9.90;99.90;;;;;;5034789;28;20099;-60
2022/11/25 11:27:01;;;;;;;14.02;3.67;;;10.10;99.90;;;;;;5039536;28;20050;-60
2022/11/25 11:29:26;;;;;;;14.43;3.65;;;10.00;99.90;;;;;;5041377;28;20049;-60
2022/11/25 11:32:06;;;;;;;9.40;3.67;;;10.00;99.90;;;;;;5037662;28;20404;-60
2022/11/25 11:34:54;;;;;;;14.20;4.20;;;10.00;99.90;;;;;;5032675;28;20049;-60
2022/11/25 11:37:43;;;;;;;9.75;3.17;;;10.10;99.90;;;;;;5032536;28;20057;-60
2022/11/25 11:40:20;;;;;;;15.77;3.55;;;10.20;99.90;;;;;;5032705;28;20371;-60
2022/11/25 11:42:53;;;;;;;11.20;3.30;;;10.20;99.90;;;;;;5032553;28;20072;-58
2022/11/25 11:45:54;;;;;;;14.52;3.53;;;10.20;99.90;;;;;;5032323;28;20045;-60
2022/11/25 11:48:25;;;;;;;14.52;3.97;;;10.10;99.90;;;;;;4984802;28;20049;-61
2022/11/25 11:51:15;;;;;;;12.40;3.22;;;10.00;99.90;;;;;;5032283;28;20045;-60
2022/11/25 11:54:03;;;;;;;11.15;3.30;;;10.10;99.90;;;;;;5032230;28;20033;-60
2022/11/25 11:56:53;;;;;;;11.55;2.85;;;10.20;99.90;;;;;;5036203;28;20500;-58
2022/11/25 11:59:39;;;;;;;16.13;3.13;;;10.30;99.90;;;;;;5051973;28;20044;-61
2022/11/25 12:02:13;;;;;;;10.50;3.25;;;10.10;99.90;;;;;;5051943;28;20053;-59
2022/11/25 12:05:05;;;;;;;12.80;3.03;;;10.30;99.90;;;;;;5052139;28;20049;-60
2022/11/25 12:07:50;;;;;;;16.88;3.00;;;10.30;99.90;;;;;;5041327;28;20128;-60
2022/11/25 12:10:58;;;;;;;12.68;2.60;;;10.10;99.90;;;;;;5051980;28;20052;-60
2022/11/25 12:13:40;;;;;;;16.17;3.50;;;10.20;99.90;;;;;;5051111;28;20504;-60
2022/11/25 12:16:26;;;;;;;15.75;3.20;;;10.10;99.90;;;;;;5051976;28;20045;-58
2022/11/25 12:19:20;;;;;;;11.65;2.88;;;10.40;99.90;;;;;;5052029;28;20136;-58
2022/11/25 12:22:07;;;;;;;13.13;3.83;;;10.30;99.90;;;;;;5052089;28;20037;-60
2022/11/25 12:24:45;;;;;;;15.48;2.90;;;10.30;99.90;;;;;;5051852;28;20049;-60
2022/11/25 12:27:21;;;;;;;16.55;2.60;;;10.40;99.90;;;;;;5051759;28;20440;-60
2022/11/25 12:30:06;;;;;;;17.92;2.90;;;10.40;99.90;;;;;;5052081;28;20039;-60
2022/11/25 12:32:55;;;;;;;13.38;3.08;;;10.50;99.90;;;;;;5033695;28;20037;-59
2022/11/25 12:35:42;;;;;;;12.43;2.47;;;10.50;99.90;;;;;;5051638;28;20037;-60
2022/11/25 12:38:20;;;;;;;16.33;2.50;;;10.40;99.90;;;;;;5033760;28;20049;-60
2022/11/25 12:41:01;;;;;;;20.58;4.10;;;10.60;99.90;;;;;;5051863;28;20041;-60
2022/11/25 12:43:49;;;;;;;15.98;3.15;;;10.70;99.90;;;;;;5051721;28;20052;-61
2022/11/25 12:46:36;;;;;;;15.48;2.70;;;10.60;99.90;;;;;;5051671;28;20049;-59
2022/11/25 12:49:03;;;;;;;15.13;2.65;;;10.70;99.90;;;;;;5051866;28;20029;-59
2022/11/25 12:51:58;;;;;;;19.27;2.83;;;10.40;99.90;;;;;;5051681;28;20120;-60
2022/11/25 12:54:37;;;;;;;11.65;2.65;;;10.40;99.90;;;;;;5051527;28;20044;-60
2022/11/25 12:57:06;;;;;;;18.27;2.72;;;10.30;99.90;;;;;;5042764;28;20047;-60
2022/11/25 12:59:55;;;;;;;14.88;2.38;;;10.30;99.90;;;;;;5031727;28;20038;-61
2022/11/25 13:03:00;;;;;;;14.02;2.83;;;10.50;99.90;;;;;;5030927;28;20045;-60
2022/11/25 13:05:40;;;;;;;16.30;2.97;;;10.40;99.90;;;;;;5031430;28;20045;-59
2022/11/25 13:08:21;;;;;;;15.57;2.90;;;10.50;99.90;;;;;;5014005;28;20061;-58
2022/11/25 13:11:19;;;;;;;15.90;2.75;;;10.40;99.90;;;;;;5034044;28;20045;-60